Portada
METAR-TAF:

METAR-TAF

Aeropuertos :

Jask, Irán

latitud: 26-38N, longitud: 057-46E, altitud: 3 m

Observación

El informe se hizo hace 20 minutos, a las 00:00 UTC
Viento 4 kt del este-noreste
Temperatura 20°C
Humedad 83%
Presión 1017 hPa
Visibilidad: 5000 m
neblina

METAR: OIZJ 250000Z 06004KT 5000 BR NSC 20/17 Q1017

Hora: 03:50 (00:20 UTC)


TAF: falta

Observaciones y pronósticos meteorológicos de más de 4000 aeropuertos (mensajes METAR y TAF).

Los puntos amarillos y rojos representan las estaciones disponibles.

Ponga el ratón en el punto deseado para ver el nombre de la estación.

Haga clic para ver las observaciones y los pronósticos meteorológicos.

Para cambiar el mapa : haga clic en los botones verdes con una cruz de color negro para hacer un zoom, en el botón verde con un guión para alejar o en las flechas verdes para mapas adyacentes.


METAR-TAF: